createdAt,value
2022-11-24T00:01:42.131Z,40.90
2022-11-24T00:04:27.371Z,42.83
2022-11-24T00:07:12.756Z,41.55
2022-11-24T00:09:58.049Z,41.80
2022-11-24T00:12:43.788Z,44.38
2022-11-24T00:15:29.142Z,42.67
2022-11-24T00:18:14.329Z,43.35
2022-11-24T00:20:59.957Z,44.50
2022-11-24T00:23:46.185Z,42.38
2022-11-24T00:26:33.903Z,43.72
2022-11-24T00:29:21.358Z,42.50
2022-11-24T00:32:06.654Z,41.20
2022-11-24T00:34:51.848Z,41.50
2022-11-24T00:37:37.343Z,41.45
2022-11-24T00:40:22.801Z,41.85
2022-11-24T00:43:08.199Z,43.03
2022-11-24T00:45:53.541Z,40.83
2022-11-24T00:48:38.625Z,42.42
2022-11-24T00:51:30.197Z,42.75
2022-11-24T00:54:15.427Z,41.00
2022-11-24T00:57:00.731Z,43.50
2022-11-24T00:59:47.333Z,41.33
2022-11-24T01:02:32.445Z,41.47
2022-11-24T01:05:17.926Z,41.85
2022-11-24T01:08:03.526Z,41.53
2022-11-24T01:10:49.044Z,42.25
2022-11-24T01:13:34.825Z,42.67
2022-11-24T01:16:24.449Z,42.22
2022-11-24T01:19:09.687Z,42.55
2022-11-24T01:21:55.267Z,40.78
2022-11-24T01:24:40.544Z,43.83
2022-11-24T01:27:25.794Z,44.90
2022-11-24T01:30:11.409Z,43.25
2022-11-24T01:32:56.896Z,41.88
2022-11-24T01:35:42.379Z,42.17
2022-11-24T01:38:28.184Z,42.47
2022-11-24T01:41:18.603Z,41.15
2022-11-24T01:44:24.530Z,40.85
2022-11-24T01:47:22.253Z,41.40
2022-11-24T01:50:15.995Z,42.70
2022-11-24T01:53:01.914Z,42.03
2022-11-24T01:55:47.713Z,41.72
2022-11-24T01:58:35.729Z,42.33
2022-11-24T02:01:21.135Z,41.35
2022-11-24T02:04:12.830Z,42.03
2022-11-24T02:07:01.427Z,41.63
2022-11-24T02:10:00.962Z,40.95
2022-11-24T02:12:49.582Z,41.03
2022-11-24T02:15:35.765Z,39.45
2022-11-24T02:18:21.579Z,38.33
2022-11-24T02:21:07.756Z,37.03
2022-11-24T02:24:13.213Z,38.58
2022-11-24T02:26:59.059Z,36.50
2022-11-24T02:29:44.751Z,36.67
2022-11-24T02:32:32.356Z,37.65
2022-11-24T02:35:18.101Z,38.78
2022-11-24T02:38:03.313Z,37.05
2022-11-24T02:40:49.506Z,38.92
2022-11-24T02:43:41.959Z,38.33
2022-11-24T02:46:27.369Z,38.50
2022-11-24T02:49:12.571Z,39.97
2022-11-24T02:51:57.909Z,39.17
2022-11-24T02:54:43.155Z,39.63
2022-11-24T02:57:28.588Z,38.28
2022-11-24T03:00:14.253Z,38.92
2022-11-24T03:02:59.626Z,39.88
2022-11-24T03:05:44.818Z,40.53
2022-11-24T03:08:30.233Z,40.50
2022-11-24T03:11:15.397Z,41.53
2022-11-24T03:14:01.736Z,41.38
2022-11-24T03:16:47.444Z,39.20
2022-11-24T03:19:33.188Z,41.35
2022-11-24T03:22:18.731Z,41.28
2022-11-24T03:25:04.549Z,39.20
2022-11-24T03:27:49.801Z,39.47
2022-11-24T03:30:35.407Z,38.10
2022-11-24T03:33:20.909Z,38.45
2022-11-24T03:36:07.004Z,39.58
2022-11-24T03:38:52.572Z,37.92
2022-11-24T03:41:37.991Z,38.65
2022-11-24T03:44:23.223Z,39.97
2022-11-24T03:47:10.442Z,37.38
2022-11-24T03:49:55.453Z,37.97
2022-11-24T03:52:41.238Z,37.15
2022-11-24T03:55:26.407Z,36.78
2022-11-24T03:58:12.055Z,39.35
2022-11-24T04:00:58.254Z,37.92
2022-11-24T04:03:43.795Z,39.75
2022-11-24T04:06:28.905Z,38.25
2022-11-24T04:09:14.260Z,37.00
2022-11-24T04:12:18.600Z,37.78
2022-11-24T04:15:04.135Z,37.33
2022-11-24T04:17:50.320Z,34.67
2022-11-24T04:20:36.411Z,35.58
2022-11-24T04:23:22.092Z,35.55
2022-11-24T04:26:07.995Z,34.35
2022-11-24T04:28:53.544Z,33.95
2022-11-24T04:31:39.188Z,35.60
2022-11-24T04:34:24.303Z,36.10
2022-11-24T04:37:09.737Z,36.50
2022-11-24T04:39:55.337Z,35.47
2022-11-24T04:42:40.866Z,37.75
2022-11-24T04:45:26.068Z,36.45
2022-11-24T04:48:11.270Z,35.03
2022-11-24T04:50:56.976Z,36.88
2022-11-24T04:53:42.412Z,36.75
2022-11-24T04:56:27.453Z,34.63
2022-11-24T04:59:16.183Z,34.17
2022-11-24T05:02:01.506Z,35.25
2022-11-24T05:04:47.578Z,36.22
2022-11-24T05:07:33.154Z,37.65
2022-11-24T05:10:36.737Z,35.03
2022-11-24T05:13:21.666Z,33.75
2022-11-24T05:16:07.409Z,32.08
2022-11-24T05:18:52.917Z,31.55
2022-11-24T05:21:38.214Z,30.83
2022-11-24T05:24:23.330Z,31.13
2022-11-24T05:27:08.260Z,30.25
2022-11-24T05:29:53.563Z,30.80
2022-11-24T05:32:38.872Z,29.95
2022-11-24T05:35:24.357Z,29.50
2022-11-24T05:38:09.507Z,31.40
2022-11-24T05:40:55.024Z,30.17
2022-11-24T05:43:40.230Z,28.38
2022-11-24T05:46:25.419Z,28.05
2022-11-24T05:49:10.850Z,29.20
2022-11-24T05:51:56.031Z,28.60
2022-11-24T05:54:41.402Z,30.33
2022-11-24T05:57:26.927Z,27.67
2022-11-24T06:00:12.805Z,27.50
2022-11-24T06:02:58.738Z,26.75
2022-11-24T06:05:47.071Z,27.05
2022-11-24T06:08:33.691Z,27.50
2022-11-24T06:11:18.818Z,26.75
2022-11-24T06:14:09.670Z,28.13
2022-11-24T06:16:56.297Z,29.38
2022-11-24T06:19:42.351Z,29.20
2022-11-24T06:22:27.828Z,29.85
2022-11-24T06:25:12.968Z,27.67
2022-11-24T06:27:58.324Z,27.88
2022-11-24T06:30:43.782Z,27.10
2022-11-24T06:33:37.279Z,29.77
2022-11-24T06:36:22.414Z,30.35
2022-11-24T06:39:07.979Z,28.45
2022-11-24T06:41:53.427Z,28.75
2022-11-24T06:44:39.270Z,28.35
2022-11-24T06:47:24.626Z,29.15
2022-11-24T06:50:10.610Z,28.90
2022-11-24T06:52:55.809Z,33.38
2022-11-24T06:55:42.293Z,28.17
2022-11-24T06:58:27.991Z,29.63
2022-11-24T07:01:21.099Z,29.00
2022-11-24T07:04:06.051Z,28.70
2022-11-24T07:06:51.628Z,28.90
2022-11-24T07:09:36.790Z,29.17
2022-11-24T07:12:22.313Z,27.67
2022-11-24T07:15:08.319Z,27.77
2022-11-24T07:17:53.769Z,26.92
2022-11-24T07:20:39.572Z,27.58
2022-11-24T07:23:24.628Z,28.25
2022-11-24T07:26:11.018Z,26.73
2022-11-24T07:28:56.546Z,28.65
2022-11-24T07:31:42.402Z,28.88
2022-11-24T07:34:27.493Z,28.13
2022-11-24T07:37:12.778Z,28.30
2022-11-24T07:39:58.348Z,27.27
2022-11-24T07:42:43.336Z,28.75
2022-11-24T07:45:28.566Z,28.00
2022-11-24T07:48:13.674Z,27.42
2022-11-24T07:51:00.455Z,28.77
2022-11-24T07:53:46.084Z,28.73
2022-11-24T07:56:31.376Z,27.90
2022-11-24T07:59:16.948Z,27.70
2022-11-24T08:02:02.462Z,28.20
2022-11-24T08:04:47.491Z,27.45
2022-11-24T08:07:33.028Z,29.63
2022-11-24T08:10:18.303Z,29.70
2022-11-24T08:13:03.496Z,29.50
2022-11-24T08:15:48.861Z,29.50
2022-11-24T08:18:35.515Z,29.88
2022-11-24T08:21:23.312Z,29.52
2022-11-24T08:24:09.052Z,27.38
2022-11-24T08:26:54.531Z,29.08
2022-11-24T08:29:39.859Z,28.92
2022-11-24T08:32:25.268Z,27.08
2022-11-24T08:35:15.102Z,29.33
2022-11-24T08:38:04.828Z,29.02
2022-11-24T08:40:50.231Z,28.30
2022-11-24T08:43:35.843Z,30.10
2022-11-24T08:46:22.106Z,29.23
2022-11-24T08:49:07.605Z,30.60
2022-11-24T08:51:53.205Z,29.38
2022-11-24T08:54:38.403Z,29.70
2022-11-24T08:57:24.649Z,29.73
2022-11-24T09:00:11.174Z,27.83
2022-11-24T09:02:58.043Z,29.45
2022-11-24T09:05:51.886Z,30.02
2022-11-24T09:08:38.453Z,30.95
2022-11-24T09:11:25.207Z,33.28
2022-11-24T09:14:10.571Z,31.50
2022-11-24T09:16:55.741Z,29.33
2022-11-24T09:19:44.760Z,27.98
2022-11-24T09:22:31.018Z,28.33
2022-11-24T09:25:17.257Z,27.10
2022-11-24T09:28:02.522Z,26.55
2022-11-24T09:30:47.656Z,29.92
2022-11-24T09:33:33.812Z,31.33
2022-11-24T09:36:19.944Z,30.48
2022-11-24T09:39:05.381Z,29.45
2022-11-24T09:42:24.942Z,30.15
2022-11-24T09:51:24.699Z,26.77
2022-11-24T09:54:18.328Z,27.67
2022-11-24T09:57:06.241Z,29.27
2022-11-24T09:59:51.392Z,28.90
2022-11-24T10:02:36.887Z,29.23
2022-11-24T10:05:27.052Z,28.90
2022-11-24T10:08:32.749Z,29.98
2022-11-24T10:11:38.469Z,29.02
2022-11-24T10:14:51.478Z,28.75
2022-11-24T10:17:47.300Z,28.83
2022-11-24T10:20:57.284Z,29.55
2022-11-24T10:23:56.408Z,29.20
2022-11-24T10:26:51.396Z,29.20
2022-11-24T10:29:40.621Z,30.85
2022-11-24T10:32:32.355Z,31.10
2022-11-24T10:36:00.560Z,31.58
2022-11-24T10:38:52.687Z,31.38
2022-11-24T10:41:51.588Z,32.72
2022-11-24T10:44:36.900Z,31.27
2022-11-24T10:47:22.769Z,31.60
2022-11-24T10:50:14.488Z,29.67
2022-11-24T10:53:16.799Z,30.30
2022-11-24T10:56:05.071Z,31.02
2022-11-24T10:58:50.593Z,30.90
2022-11-24T11:01:35.910Z,30.30
2022-11-24T11:04:26.678Z,29.77
2022-11-24T11:07:20.723Z,31.13
2022-11-24T11:10:21.914Z,30.85
2022-11-24T11:13:25.006Z,29.33
2022-11-24T11:16:24.455Z,29.60
2022-11-24T11:22:37.545Z,30.60
2022-11-24T11:25:33.801Z,33.28
2022-11-24T11:28:28.813Z,30.17
2022-11-24T11:31:22.009Z,28.15
2022-11-24T11:34:19.245Z,32.10
2022-11-24T11:37:07.198Z,28.92
2022-11-24T11:39:55.020Z,30.98
2022-11-24T11:43:06.119Z,30.52
2022-11-24T11:46:11.617Z,31.45
2022-11-24T11:48:57.135Z,32.22
2022-11-24T11:52:28.413Z,29.88
2022-11-24T11:55:32.574Z,29.65
2022-11-24T11:58:45.869Z,30.20
2022-11-24T12:02:16.369Z,29.75
2022-11-24T12:05:27.670Z,29.63
2022-11-24T12:08:29.354Z,30.33
2022-11-24T12:11:24.318Z,31.05
2022-11-24T12:14:17.461Z,30.80
2022-11-24T12:17:26.570Z,32.00
2022-11-24T12:20:41.797Z,29.50
2022-11-24T12:23:36.397Z,28.73
2022-11-24T12:26:42.057Z,29.70
2022-11-24T12:29:58.685Z,27.35
2022-11-24T12:32:44.028Z,28.85
2022-11-24T12:35:37.064Z,28.98
2022-11-24T12:38:45.196Z,28.10
2022-11-24T12:41:50.050Z,28.92
2022-11-24T12:44:45.147Z,27.15
2022-11-24T12:47:58.951Z,27.45
2022-11-24T12:50:45.921Z,28.60
2022-11-24T12:53:37.434Z,27.98
2022-11-24T12:56:34.653Z,27.88
2022-11-24T12:59:47.297Z,27.92
2022-11-24T13:02:54.698Z,29.20
2022-11-24T13:06:10.625Z,28.17
2022-11-24T13:08:56.764Z,27.85
2022-11-24T13:11:41.943Z,28.98
2022-11-24T13:14:37.541Z,28.35
2022-11-24T13:17:50.001Z,29.27
2022-11-24T13:20:40.415Z,30.77
2022-11-24T13:23:27.868Z,29.50
2022-11-24T13:26:27.398Z,30.17
2022-11-24T13:29:28.054Z,27.77
2022-11-24T13:32:14.333Z,28.13
2022-11-24T13:35:14.565Z,28.75
2022-11-24T13:37:59.932Z,28.27
2022-11-24T13:41:12.959Z,27.85
2022-11-24T13:44:23.295Z,29.35
2022-11-24T13:47:45.358Z,28.33
2022-11-24T13:50:55.882Z,28.08
2022-11-24T13:53:45.501Z,27.88
2022-11-24T13:56:30.849Z,28.80
2022-11-24T13:59:34.160Z,28.17
2022-11-24T14:02:23.180Z,28.52
2022-11-24T14:05:14.576Z,27.92
2022-11-24T14:08:00.374Z,26.67
2022-11-24T14:10:45.873Z,26.90
2022-11-24T14:13:34.571Z,29.80
2022-11-24T14:16:21.904Z,22.08
2022-11-24T14:19:11.101Z,29.48
2022-11-24T14:21:56.537Z,29.02
2022-11-24T14:24:45.406Z,30.83
2022-11-24T14:27:34.463Z,29.42
2022-11-24T14:30:22.241Z,22.53
2022-11-24T14:33:12.533Z,29.15
2022-11-24T14:35:57.540Z,28.55
2022-11-24T14:38:43.761Z,28.55
2022-11-24T14:41:29.119Z,28.45
2022-11-24T14:44:26.385Z,27.02
2022-11-24T14:47:33.832Z,27.60
2022-11-24T14:50:23.177Z,29.08
2022-11-24T14:53:14.686Z,27.75
2022-11-24T14:56:20.020Z,30.25
2022-11-24T14:59:22.733Z,28.52
2022-11-24T15:02:46.232Z,29.33
2022-11-24T15:05:57.110Z,32.88
2022-11-24T15:08:47.061Z,30.13
2022-11-24T15:11:33.604Z,30.25
2022-11-24T15:14:51.945Z,30.48
2022-11-24T15:17:37.212Z,28.33
2022-11-24T15:20:28.574Z,29.13
2022-11-24T15:23:22.881Z,28.38
2022-11-24T15:26:11.421Z,31.90
2022-11-24T15:28:56.915Z,27.95
2022-11-24T15:31:46.466Z,30.05
2022-11-24T15:34:36.572Z,30.33
2022-11-24T15:37:22.297Z,29.52
2022-11-24T15:40:10.496Z,31.38
2022-11-24T15:42:59.605Z,30.63
2022-11-24T15:45:49.417Z,30.27
2022-11-24T15:48:35.001Z,28.83
2022-11-24T15:51:20.370Z,27.73
2022-11-24T15:54:07.126Z,29.65
2022-11-24T15:56:52.479Z,30.88
2022-11-24T15:59:38.587Z,30.70
2022-11-24T16:02:24.145Z,30.45
2022-11-24T16:05:11.170Z,29.92
2022-11-24T16:07:56.453Z,28.60
2022-11-24T16:10:43.373Z,31.25
2022-11-24T16:13:28.707Z,30.67
2022-11-24T16:16:15.604Z,31.27
2022-11-24T16:19:01.051Z,31.90
2022-11-24T16:21:49.630Z,30.25
2022-11-24T16:24:35.299Z,23.83
2022-11-24T16:27:21.017Z,32.03
2022-11-24T16:30:07.242Z,34.55
2022-11-24T16:32:52.792Z,33.17
2022-11-24T16:35:38.345Z,33.10
2022-11-24T16:38:23.598Z,34.83
2022-11-24T16:41:10.419Z,37.28
2022-11-24T16:43:56.339Z,36.72
2022-11-24T16:46:43.192Z,36.00
2022-11-24T16:49:28.661Z,35.60
2022-11-24T16:52:17.444Z,35.15
2022-11-24T16:55:02.718Z,35.80
2022-11-24T16:57:48.375Z,33.40
2022-11-24T17:00:33.533Z,36.38
2022-11-24T17:03:19.012Z,34.95
2022-11-24T17:06:11.154Z,34.10
2022-11-24T17:08:56.697Z,33.22
2022-11-24T17:11:41.948Z,32.92
2022-11-24T17:14:27.589Z,35.08
2022-11-24T17:17:12.750Z,34.63
2022-11-24T17:19:58.208Z,33.55
2022-11-24T17:22:44.142Z,33.63
2022-11-24T17:25:29.285Z,33.67
2022-11-24T17:28:14.961Z,34.88
2022-11-24T17:31:08.929Z,33.80
2022-11-24T17:33:56.807Z,37.55
2022-11-24T17:36:44.672Z,35.88
2022-11-24T17:39:30.079Z,35.42
2022-11-24T17:42:15.063Z,34.75
2022-11-24T17:45:00.527Z,34.22
2022-11-24T17:47:45.742Z,36.97
2022-11-24T17:50:31.321Z,35.50
2022-11-24T17:54:13.580Z,35.28
2022-11-24T17:57:07.904Z,35.83
2022-11-24T17:59:53.265Z,33.53
2022-11-24T18:02:38.842Z,35.92
2022-11-24T18:05:24.357Z,35.55
2022-11-24T18:08:11.787Z,39.50
2022-11-24T18:11:06.335Z,36.15
2022-11-24T18:13:59.982Z,37.40
2022-11-24T18:16:46.000Z,36.47
2022-11-24T18:19:31.073Z,35.72
2022-11-24T18:22:16.425Z,37.95
2022-11-24T18:25:01.965Z,41.30
2022-11-24T18:27:48.010Z,47.63
2022-11-24T18:30:33.151Z,36.20
2022-11-24T18:33:19.117Z,35.67
2022-11-24T18:36:06.742Z,33.72
2022-11-24T18:38:52.096Z,33.63
2022-11-24T18:41:39.344Z,32.40
2022-11-24T18:44:24.665Z,32.92
2022-11-24T18:47:10.152Z,33.15
2022-11-24T18:49:55.725Z,32.22
2022-11-24T18:52:41.052Z,32.90
2022-11-24T18:55:26.612Z,31.90
2022-11-24T18:58:11.940Z,33.22
2022-11-24T19:01:16.804Z,31.38
2022-11-24T19:04:02.957Z,34.25
2022-11-24T19:06:48.422Z,34.40
2022-11-24T19:09:33.977Z,34.30
2022-11-24T19:12:28.530Z,33.20
2022-11-24T19:15:26.904Z,33.58
2022-11-24T19:18:11.937Z,35.35
2022-11-24T19:20:58.123Z,35.72
2022-11-24T19:23:43.320Z,36.90
2022-11-24T19:26:28.573Z,36.58
2022-11-24T19:29:13.761Z,35.63
2022-11-24T19:31:59.259Z,34.78
2022-11-24T19:34:44.708Z,34.95
2022-11-24T19:37:30.109Z,32.88
2022-11-24T19:40:15.837Z,33.17
2022-11-24T19:43:01.001Z,33.05
2022-11-24T19:45:46.610Z,33.60
2022-11-24T19:48:54.513Z,33.53
2022-11-24T19:51:39.894Z,32.42
2022-11-24T19:54:25.291Z,30.88
2022-11-24T19:57:10.570Z,32.40
2022-11-24T19:59:55.638Z,32.83
2022-11-24T20:02:41.340Z,29.92
2022-11-24T20:05:26.435Z,30.88
2022-11-24T20:08:11.807Z,29.48
2022-11-24T20:11:03.762Z,31.60
2022-11-24T20:13:49.830Z,32.28
2022-11-24T20:16:35.552Z,31.77
2022-11-24T20:19:20.827Z,30.83
2022-11-24T20:22:06.314Z,30.48
2022-11-24T20:24:51.462Z,31.02
2022-11-24T20:27:36.992Z,31.50
2022-11-24T20:30:22.355Z,29.75
2022-11-24T20:33:07.745Z,30.95
2022-11-24T20:35:53.109Z,30.30
2022-11-24T20:38:39.668Z,29.17
2022-11-24T20:41:27.677Z,30.60
2022-11-24T20:44:15.557Z,31.90
2022-11-24T20:47:02.779Z,31.92
2022-11-24T20:49:49.078Z,32.45
2022-11-24T20:52:34.712Z,33.50
2022-11-24T20:55:19.936Z,32.10
2022-11-24T20:58:05.312Z,32.67
2022-11-24T21:00:50.743Z,35.42
2022-11-24T21:03:42.625Z,34.80
2022-11-24T21:06:28.957Z,34.90
2022-11-24T21:09:14.541Z,34.60
2022-11-24T21:12:00.357Z,33.15
2022-11-24T21:14:45.865Z,34.88
2022-11-24T21:17:32.521Z,33.97
2022-11-24T21:20:19.468Z,33.78
2022-11-24T21:23:05.070Z,32.70
2022-11-24T21:25:50.223Z,31.35
2022-11-24T21:28:35.678Z,32.67
2022-11-24T21:31:21.328Z,31.42
2022-11-24T21:34:07.962Z,32.92
2022-11-24T21:36:53.540Z,33.20
2022-11-24T21:39:40.800Z,34.75
2022-11-24T21:42:26.168Z,34.58
2022-11-24T21:45:11.717Z,32.53
2022-11-24T21:47:56.965Z,30.08
2022-11-24T21:50:42.202Z,27.70
2022-11-24T21:53:32.333Z,27.27
2022-11-24T21:56:20.341Z,27.33
2022-11-24T21:59:05.508Z,31.00
2022-11-24T22:01:51.267Z,30.38
2022-11-24T22:04:36.664Z,30.38
2022-11-24T22:07:22.002Z,26.98
2022-11-24T22:10:08.002Z,24.45
2022-11-24T22:12:53.281Z,26.27
2022-11-24T22:15:38.772Z,25.98
2022-11-24T22:18:24.226Z,23.60
2022-11-24T22:21:15.511Z,23.35
2022-11-24T22:24:01.156Z,22.08
2022-11-24T22:26:47.633Z,24.25
2022-11-24T22:29:33.015Z,20.73
2022-11-24T22:32:18.642Z,22.50
2022-11-24T22:35:04.211Z,22.00
2022-11-24T22:37:49.657Z,24.40
2022-11-24T22:40:34.937Z,22.30
2022-11-24T22:43:23.097Z,22.58
2022-11-24T22:46:11.716Z,21.30
2022-11-24T22:48:59.855Z,25.08
2022-11-24T22:51:45.099Z,23.35
2022-11-24T22:54:30.560Z,24.40
2022-11-24T22:57:15.970Z,23.77
2022-11-24T23:00:01.427Z,25.08
2022-11-24T23:02:47.656Z,24.92
2022-11-24T23:05:33.363Z,24.20
2022-11-24T23:08:19.110Z,24.77
2022-11-24T23:11:09.213Z,25.23
2022-11-24T23:13:56.411Z,27.95
2022-11-24T23:16:42.984Z,24.90
2022-11-24T23:19:28.298Z,25.80
2022-11-24T23:22:13.543Z,26.50
2022-11-24T23:24:59.093Z,25.90
2022-11-24T23:27:44.589Z,27.48
2022-11-24T23:30:30.141Z,28.33
2022-11-24T23:33:15.315Z,27.77
2022-11-24T23:36:20.992Z,27.15
2022-11-24T23:39:11.628Z,26.55
2022-11-24T23:41:57.055Z,25.58
2022-11-24T23:44:42.631Z,28.02
2022-11-24T23:47:28.797Z,26.45
2022-11-24T23:50:14.419Z,27.35
2022-11-24T23:52:59.525Z,24.05
2022-11-24T23:55:53.085Z,25.73
2022-11-24T23:58:38.289Z,24.23
